Honiara International Airport
AGGH : now visible

Airfield :











YOU CAN JOIN US ON...

 
LOGIN :

Register | Disclaimer

   EN    FR    IT 

 









Legend :    VFR   Marginal VFR   IFR   Intensive IFR   Very Intensive IFR
Visi :
Ceiling :
>= 8 km
>= 3000ft
5 to 8 km
1000 to 3000 ft
1500m to 5 km
500 to 1000 ft
800 to 1500m
200 to 500 ft
< 800m
< 200 ft
Symbols :   Thunderstorms  Fog  Heavy snow  Heavy precipitations  Wind > 20 kt






- Airport Elevation : 28 ft
- IATA code : HIR


AGGH - Honiara International

CURRENT METAR :
  • 090200Z 07006KT 9999 FEW019 FEW020CB BKN300 31/24 Q1010

EXPIRED METARs :
  • 090100Z 09005KT 9999 FEW019 SCT100 BKN300 31/26 Q1011
  • 090000Z 07006KT 9999 FEW019 FEW020CB SCT100 BKN300 31/25 Q1011

TAF TAF AGGH
Valid from the 09 at 00:00 until the 10 at 00:00 UTC


082315Z 0900/0924 02010KT 9999 -SHRA SCT018 BKN030
PROB40 INTER 0900/0906 5000 TSSH BKNO16 FEW017CB T 30 31 30 28 Q 1011 1009 1008 1010



MET'MAP, your aeronautical weather chart ! - Copyright ORBIFLY December 2007 - Disclaimer

ORBIFLY MET'MAP TEAM :

Programming & Development : Alexandra Zaïnal
Concept & original design : Baudouin d'Aumeries
Assistance for programming : Marc-Olivier Méhu
Technical & hardware support : Manuel Goepfert

Contact : metmap@orbifly.com




SOURCES & CREDITS :

   NOAA       Earth
Advisory